createdAt,value
2023-05-19T00:01:31.144Z,100.00
2023-05-19T00:04:02.582Z,96.45
2023-05-19T00:06:33.210Z,100.00
2023-05-19T00:09:06.072Z,100.00
2023-05-19T00:11:37.648Z,100.00
2023-05-19T00:14:08.069Z,100.00
2023-05-19T00:16:36.558Z,100.00
2023-05-19T00:19:05.517Z,100.00
2023-05-19T00:21:33.335Z,100.00
2023-05-19T00:24:01.317Z,100.00
2023-05-19T00:26:28.433Z,100.00
2023-05-19T00:29:01.811Z,100.00
2023-05-19T00:31:29.358Z,95.91
2023-05-19T00:33:56.372Z,100.00
2023-05-19T00:36:24.733Z,100.00
2023-05-19T00:38:52.137Z,100.00
2023-05-19T00:41:19.713Z,100.00
2023-05-19T00:43:46.770Z,100.00
2023-05-19T00:46:13.942Z,97.67
2023-05-19T00:48:41.033Z,100.00
2023-05-19T00:51:08.142Z,89.53
2023-05-19T00:53:35.696Z,100.00
2023-05-19T00:56:03.697Z,100.00
2023-05-19T00:58:32.946Z,99.53
2023-05-19T01:01:04.393Z,100.00
2023-05-19T01:03:37.451Z,100.00
2023-05-19T01:06:05.317Z,100.00
2023-05-19T01:08:34.626Z,100.00
2023-05-19T01:11:02.401Z,100.00
2023-05-19T01:13:30.767Z,99.60
2023-05-19T01:16:18.872Z,100.00
2023-05-19T01:19:28.931Z,98.55
2023-05-19T01:22:33.140Z,96.81
2023-05-19T01:25:17.888Z,100.00
2023-05-19T01:28:09.867Z,98.68
2023-05-19T01:30:58.945Z,100.00
2023-05-19T01:33:29.048Z,100.00
2023-05-19T01:35:57.780Z,100.00
2023-05-19T01:38:26.248Z,100.00
2023-05-19T01:40:54.685Z,100.00
2023-05-19T01:43:25.125Z,100.00
2023-05-19T01:45:55.115Z,100.00
2023-05-19T01:48:22.821Z,100.00
2023-05-19T01:50:50.146Z,100.00
2023-05-19T01:53:17.674Z,100.00
2023-05-19T01:55:48.432Z,100.00
2023-05-19T01:58:53.455Z,100.00
2023-05-19T02:01:38.571Z,100.00
2023-05-19T02:04:35.882Z,100.00
2023-05-19T02:07:40.095Z,100.00
2023-05-19T02:10:15.239Z,100.00
2023-05-19T02:12:43.662Z,100.00
2023-05-19T02:15:16.251Z,100.00
2023-05-19T02:17:50.814Z,100.00
2023-05-19T02:20:18.587Z,100.00
2023-05-19T02:22:46.126Z,100.00
2023-05-19T02:25:14.180Z,100.00
2023-05-19T02:27:42.390Z,100.00
2023-05-19T02:30:10.683Z,100.00
2023-05-19T02:32:37.890Z,100.00
2023-05-19T02:35:05.651Z,100.00
2023-05-19T02:37:33.118Z,100.00
2023-05-19T02:40:00.220Z,100.00
2023-05-19T02:42:27.249Z,100.00
2023-05-19T02:44:55.236Z,100.00
2023-05-19T02:47:22.419Z,100.00
2023-05-19T02:49:50.151Z,100.00
2023-05-19T02:52:17.382Z,100.00
2023-05-19T02:54:44.864Z,100.00
2023-05-19T02:57:12.071Z,100.00
2023-05-19T02:59:39.084Z,100.00
2023-05-19T03:02:06.217Z,100.00
2023-05-19T03:04:41.499Z,100.00
2023-05-19T03:07:13.549Z,100.00
2023-05-19T03:09:40.874Z,100.00
2023-05-19T03:12:08.409Z,100.00
2023-05-19T03:14:37.392Z,100.00
2023-05-19T03:17:08.007Z,100.00
2023-05-19T03:19:35.396Z,100.00
2023-05-19T03:22:02.637Z,100.00
2023-05-19T03:24:30.049Z,100.00
2023-05-19T03:26:57.102Z,100.00
2023-05-19T03:29:24.382Z,100.00
2023-05-19T03:31:52.228Z,100.00
2023-05-19T03:34:19.414Z,100.00
2023-05-19T03:36:46.656Z,100.00
2023-05-19T03:39:16.887Z,100.00
2023-05-19T03:41:46.176Z,100.00
2023-05-19T03:44:13.289Z,100.00
2023-05-19T03:46:40.830Z,100.00
2023-05-19T03:49:19.668Z,100.00
2023-05-19T03:52:05.464Z,100.00
2023-05-19T03:54:51.923Z,100.00
2023-05-19T03:57:20.185Z,100.00
2023-05-19T03:59:48.442Z,100.00
2023-05-19T04:02:16.636Z,100.00
2023-05-19T04:04:43.973Z,100.00
2023-05-19T04:07:11.753Z,100.00
2023-05-19T04:09:39.077Z,100.00
2023-05-19T04:12:06.592Z,100.00
2023-05-19T04:14:33.674Z,100.00
2023-05-19T04:17:00.808Z,100.00
2023-05-19T04:19:28.138Z,100.00
2023-05-19T04:21:57.063Z,100.00
2023-05-19T04:24:24.236Z,100.00
2023-05-19T04:26:52.180Z,100.00
2023-05-19T04:29:19.445Z,100.00
2023-05-19T04:31:46.960Z,100.00
2023-05-19T04:34:14.123Z,100.00
2023-05-19T04:36:41.788Z,100.00
2023-05-19T04:39:12.076Z,100.00
2023-05-19T04:41:44.590Z,100.00
2023-05-19T04:44:13.820Z,100.00
2023-05-19T04:46:42.749Z,100.00
2023-05-19T04:49:12.522Z,100.00
2023-05-19T04:51:41.532Z,100.00
2023-05-19T04:54:10.229Z,100.00
2023-05-19T04:56:37.406Z,100.00
2023-05-19T04:59:05.190Z,100.00
2023-05-19T05:01:33.953Z,100.00
2023-05-19T05:04:02.774Z,100.00
2023-05-19T05:06:31.775Z,100.00
2023-05-19T05:09:00.003Z,100.00
2023-05-19T05:11:27.523Z,100.00
2023-05-19T05:13:58.214Z,100.00
2023-05-19T05:16:27.772Z,100.00
2023-05-19T05:18:55.952Z,100.00
2023-05-19T05:21:23.833Z,100.00
2023-05-19T05:23:52.567Z,100.00
2023-05-19T05:26:24.628Z,100.00
2023-05-19T05:28:55.623Z,100.00
2023-05-19T05:31:22.983Z,100.00
2023-05-19T05:33:50.456Z,100.00
2023-05-19T05:36:20.990Z,100.00
2023-05-19T05:38:48.628Z,100.00
2023-05-19T05:41:16.286Z,100.00
2023-05-19T05:43:43.553Z,100.00
2023-05-19T05:46:10.754Z,100.00
2023-05-19T05:48:38.197Z,100.00
2023-05-19T05:51:06.543Z,100.00
2023-05-19T05:53:39.465Z,100.00
2023-05-19T05:56:08.048Z,100.00
2023-05-19T05:58:43.993Z,100.00
2023-05-19T06:01:11.878Z,100.00
2023-05-19T06:03:44.835Z,100.00
2023-05-19T06:06:15.061Z,100.00
2023-05-19T06:08:42.229Z,100.00
2023-05-19T06:11:09.684Z,100.00
2023-05-19T06:13:41.255Z,100.00
2023-05-19T06:16:11.145Z,100.00
2023-05-19T06:18:45.289Z,100.00
2023-05-19T06:21:13.427Z,100.00
2023-05-19T06:23:41.812Z,100.00
2023-05-19T06:26:10.692Z,100.00
2023-05-19T06:28:38.457Z,95.08
2023-05-19T06:31:06.057Z,94.25
2023-05-19T06:33:59.549Z,91.90
2023-05-19T06:36:26.795Z,100.00
2023-05-19T06:38:58.577Z,100.00
2023-05-19T06:41:27.681Z,100.00
2023-05-19T06:43:55.196Z,100.00
2023-05-19T06:46:22.929Z,90.39
2023-05-19T06:48:50.148Z,92.95
2023-05-19T06:51:22.373Z,100.00
2023-05-19T06:53:54.254Z,100.00
2023-05-19T06:56:23.091Z,100.00
2023-05-19T06:58:50.887Z,100.00
2023-05-19T07:01:19.166Z,100.00
2023-05-19T07:03:52.142Z,100.00
2023-05-19T07:06:21.598Z,100.00
2023-05-19T07:08:49.070Z,100.00
2023-05-19T07:11:17.958Z,86.71
2023-05-19T07:13:45.426Z,100.00
2023-05-19T07:16:16.126Z,100.00
2023-05-19T07:18:44.822Z,100.00
2023-05-19T07:21:12.028Z,100.00
2023-05-19T07:23:39.654Z,100.00
2023-05-19T07:26:06.728Z,100.00
2023-05-19T07:28:34.443Z,100.00
2023-05-19T07:31:01.601Z,100.00
2023-05-19T07:33:29.046Z,100.00
2023-05-19T07:35:56.449Z,100.00
2023-05-19T07:38:23.517Z,100.00
2023-05-19T07:40:50.584Z,95.18
2023-05-19T07:43:17.842Z,100.00
2023-05-19T07:45:44.904Z,100.00
2023-05-19T07:48:12.067Z,100.00
2023-05-19T07:50:39.171Z,100.00
2023-05-19T07:53:06.197Z,92.24
2023-05-19T07:55:33.632Z,93.13
2023-05-19T07:58:00.710Z,89.22
2023-05-19T08:00:28.494Z,100.00
2023-05-19T08:02:57.001Z,100.00
2023-05-19T08:05:25.977Z,100.00
2023-05-19T08:07:53.089Z,100.00
2023-05-19T08:10:20.155Z,100.00
2023-05-19T08:12:47.262Z,100.00
2023-05-19T08:15:14.383Z,100.00
2023-05-19T08:17:41.437Z,100.00
2023-05-19T08:20:10.292Z,89.25
2023-05-19T08:22:37.406Z,100.00
2023-05-19T08:25:05.608Z,100.00
2023-05-19T08:27:33.346Z,100.00
2023-05-19T08:30:00.907Z,100.00
2023-05-19T08:32:28.369Z,100.00
2023-05-19T08:34:55.702Z,100.00
2023-05-19T08:37:22.769Z,100.00
2023-05-19T08:39:50.272Z,90.00
2023-05-19T08:42:17.338Z,85.58
2023-05-19T08:44:44.862Z,97.84
2023-05-19T08:47:15.223Z,83.42
2023-05-19T08:49:47.497Z,82.37
2023-05-19T08:52:58.005Z,100.00
2023-05-19T08:56:10.553Z,100.00
2023-05-19T08:58:43.821Z,84.25
2023-05-19T09:01:14.203Z,100.00
2023-05-19T09:03:42.563Z,100.00
2023-05-19T09:06:14.252Z,93.46
2023-05-19T09:08:42.894Z,100.00
2023-05-19T09:11:10.834Z,84.11
2023-05-19T09:13:38.683Z,89.88
2023-05-19T09:16:06.643Z,84.33
2023-05-19T09:18:33.927Z,91.54
2023-05-19T09:21:04.958Z,94.86
2023-05-19T09:23:34.084Z,100.00
2023-05-19T09:26:08.422Z,100.00
2023-05-19T09:28:36.886Z,100.00
2023-05-19T09:31:09.835Z,81.98
2023-05-19T09:33:46.220Z,92.44
2023-05-19T09:36:14.038Z,93.37
2023-05-19T09:38:41.539Z,100.00
2023-05-19T09:41:09.811Z,100.00
2023-05-19T09:43:36.926Z,84.28
2023-05-19T09:46:11.261Z,98.04
2023-05-19T09:48:40.021Z,83.82
2023-05-19T09:51:11.011Z,80.56
2023-05-19T09:53:39.091Z,80.76
2023-05-19T09:56:08.788Z,97.49
2023-05-19T09:58:36.798Z,100.00
2023-05-19T10:01:05.432Z,93.17
2023-05-19T10:03:34.250Z,94.57
2023-05-19T10:06:02.200Z,100.00
2023-05-19T10:08:30.821Z,100.00
2023-05-19T10:10:59.115Z,100.00
2023-05-19T10:13:27.223Z,93.17
2023-05-19T10:15:58.775Z,86.59
2023-05-19T10:18:27.959Z,80.02
2023-05-19T10:20:57.774Z,89.08
2023-05-19T10:23:25.585Z,99.30
2023-05-19T10:25:57.580Z,98.05
2023-05-19T10:28:34.167Z,100.00
2023-05-19T10:31:02.930Z,100.00
2023-05-19T10:34:19.019Z,100.00
2023-05-19T10:37:09.325Z,91.80
2023-05-19T10:39:36.775Z,91.80
2023-05-19T10:42:19.667Z,79.11
2023-05-19T10:45:19.037Z,93.56
2023-05-19T10:47:46.894Z,86.57
2023-05-19T10:50:14.073Z,87.45
2023-05-19T10:52:41.393Z,92.48
2023-05-19T10:55:17.661Z,94.87
2023-05-19T10:57:56.865Z,85.03
2023-05-19T11:00:29.425Z,93.31
2023-05-19T11:03:17.903Z,76.70
2023-05-19T11:05:50.862Z,82.45
2023-05-19T11:08:34.931Z,75.72
2023-05-19T11:11:17.919Z,83.71
2023-05-19T11:13:52.454Z,74.68
2023-05-19T11:16:30.462Z,77.77
2023-05-19T11:18:59.902Z,82.12
2023-05-19T11:21:54.964Z,75.76
2023-05-19T11:24:50.542Z,75.20
2023-05-19T11:27:33.132Z,75.52
2023-05-19T11:30:07.664Z,70.41
2023-05-19T11:32:39.251Z,75.11
2023-05-19T11:35:08.220Z,75.24
2023-05-19T11:37:35.909Z,83.31
2023-05-19T11:40:09.637Z,78.21
2023-05-19T11:42:37.356Z,80.38
2023-05-19T11:45:05.772Z,74.43
2023-05-19T11:47:41.734Z,67.47
2023-05-19T11:50:20.585Z,78.97
2023-05-19T11:52:47.985Z,66.98
2023-05-19T11:55:22.044Z,72.89
2023-05-19T11:58:07.267Z,84.14
2023-05-19T12:00:40.969Z,75.30
2023-05-19T12:03:09.408Z,80.19
2023-05-19T12:05:43.132Z,87.45
2023-05-19T12:08:12.034Z,87.36
2023-05-19T12:10:40.730Z,85.69
2023-05-19T12:13:09.616Z,77.14
2023-05-19T12:15:37.487Z,74.23
2023-05-19T12:18:04.698Z,71.31
2023-05-19T12:20:32.890Z,69.83
2023-05-19T12:23:01.600Z,87.28
2023-05-19T12:25:32.867Z,85.74
2023-05-19T12:28:05.700Z,81.79
2023-05-19T12:30:34.769Z,81.80
2023-05-19T12:33:03.093Z,88.09
2023-05-19T12:35:36.491Z,92.90
2023-05-19T12:38:07.163Z,94.96
2023-05-19T12:40:36.319Z,92.34
2023-05-19T12:43:04.281Z,91.15
2023-05-19T12:45:39.885Z,94.63
2023-05-19T12:48:12.648Z,74.79
2023-05-19T12:50:45.032Z,94.66
2023-05-19T12:53:13.019Z,79.39
2023-05-19T12:55:42.958Z,86.86
2023-05-19T12:58:11.994Z,88.96
2023-05-19T13:00:45.251Z,91.95
2023-05-19T13:03:24.489Z,78.30
2023-05-19T13:05:52.154Z,80.54
2023-05-19T13:08:21.892Z,73.61
2023-05-19T13:10:49.716Z,81.04
2023-05-19T13:13:17.512Z,79.30
2023-05-19T13:15:46.228Z,67.20
2023-05-19T13:18:14.378Z,71.53
2023-05-19T13:20:44.649Z,77.72
2023-05-19T13:23:12.741Z,72.64
2023-05-19T13:25:40.401Z,71.51
2023-05-19T13:28:08.255Z,79.20
2023-05-19T13:30:38.644Z,72.84
2023-05-19T13:33:06.413Z,70.10
2023-05-19T13:35:37.385Z,77.04
2023-05-19T13:38:12.174Z,87.39
2023-05-19T13:40:40.452Z,84.84
2023-05-19T13:43:08.736Z,84.18
2023-05-19T13:45:36.027Z,71.89
2023-05-19T13:48:03.367Z,88.77
2023-05-19T13:50:30.640Z,71.36
2023-05-19T13:52:59.268Z,78.12
2023-05-19T13:55:27.661Z,73.70
2023-05-19T13:57:54.846Z,75.54
2023-05-19T14:00:22.672Z,96.41
2023-05-19T14:02:50.022Z,81.35
2023-05-19T14:05:17.726Z,81.25
2023-05-19T14:07:44.868Z,82.93
2023-05-19T14:10:11.974Z,78.20
2023-05-19T14:12:55.088Z,81.88
2023-05-19T14:15:27.351Z,81.17
2023-05-19T14:17:54.610Z,79.17
2023-05-19T14:20:22.356Z,78.20
2023-05-19T14:22:49.420Z,71.40
2023-05-19T14:25:16.565Z,84.09
2023-05-19T14:27:43.611Z,83.69
2023-05-19T14:30:11.174Z,69.36
2023-05-19T14:32:38.317Z,72.84
2023-05-19T14:35:06.099Z,85.41
2023-05-19T14:37:33.197Z,82.70
2023-05-19T14:40:00.452Z,77.63
2023-05-19T14:42:27.933Z,80.01
2023-05-19T14:44:55.086Z,69.45
2023-05-19T14:47:22.260Z,70.64
2023-05-19T14:49:49.352Z,69.64
2023-05-19T14:52:16.384Z,75.64
2023-05-19T14:54:43.576Z,81.70
2023-05-19T14:57:10.748Z,86.27
2023-05-19T14:59:38.896Z,89.27
2023-05-19T15:02:06.189Z,84.71
2023-05-19T15:04:33.261Z,76.38
2023-05-19T15:09:30.783Z,71.22
2023-05-19T15:12:01.060Z,78.58
2023-05-19T15:14:30.543Z,77.03
2023-05-19T15:16:59.109Z,68.88
2023-05-19T15:19:26.782Z,69.75
2023-05-19T15:21:54.133Z,84.96
2023-05-19T15:24:21.388Z,67.72
2023-05-19T15:26:49.063Z,68.03
2023-05-19T15:29:16.409Z,72.58
2023-05-19T15:31:43.657Z,81.27
2023-05-19T15:34:10.834Z,81.68
2023-05-19T15:36:37.928Z,65.52
2023-05-19T15:39:05.162Z,78.20
2023-05-19T15:41:32.267Z,73.47
2023-05-19T15:44:02.747Z,71.54
2023-05-19T15:46:30.800Z,64.95
2023-05-19T15:48:58.211Z,72.35
2023-05-19T15:51:26.165Z,71.61
2023-05-19T15:53:53.277Z,73.60
2023-05-19T15:56:21.549Z,64.96
2023-05-19T15:58:49.295Z,64.60
2023-05-19T16:01:17.628Z,69.84
2023-05-19T16:03:45.980Z,84.32
2023-05-19T16:06:13.318Z,84.49
2023-05-19T16:08:40.515Z,90.20
2023-05-19T16:11:07.668Z,85.22
2023-05-19T16:13:34.721Z,84.13
2023-05-19T16:16:02.002Z,77.36
2023-05-19T16:18:32.169Z,79.65
2023-05-19T16:20:59.696Z,67.91
2023-05-19T16:23:27.758Z,69.04
2023-05-19T16:25:55.424Z,67.92
2023-05-19T16:28:25.025Z,80.37
2023-05-19T16:30:52.459Z,76.72
2023-05-19T16:33:20.037Z,84.23
2023-05-19T16:35:47.267Z,75.49
2023-05-19T16:38:14.480Z,82.96
2023-05-19T16:40:41.538Z,77.91
2023-05-19T16:43:08.682Z,81.23
2023-05-19T16:45:36.238Z,81.54
2023-05-19T16:48:03.774Z,67.46
2023-05-19T16:50:31.217Z,70.83
2023-05-19T16:52:58.360Z,81.18
2023-05-19T16:55:26.838Z,76.31
2023-05-19T16:57:54.353Z,67.78
2023-05-19T17:00:21.467Z,71.71
2023-05-19T17:02:48.594Z,70.88
2023-05-19T17:05:16.168Z,81.09
2023-05-19T17:07:43.258Z,70.64
2023-05-19T17:10:10.544Z,77.18
2023-05-19T17:12:37.755Z,77.94
2023-05-19T17:15:05.725Z,75.43
2023-05-19T17:17:32.825Z,70.46
2023-05-19T17:20:00.788Z,70.29
2023-05-19T17:22:29.533Z,72.51
2023-05-19T17:24:57.533Z,71.99
2023-05-19T17:27:25.104Z,69.52
2023-05-19T17:29:52.141Z,72.62
2023-05-19T17:32:22.191Z,70.60
2023-05-19T17:34:49.355Z,73.25
2023-05-19T17:37:17.573Z,74.86
2023-05-19T17:39:44.631Z,78.49
2023-05-19T17:42:11.935Z,79.84
2023-05-19T17:44:38.972Z,80.30
2023-05-19T17:47:08.104Z,78.19
2023-05-19T17:49:35.307Z,73.26
2023-05-19T17:52:02.688Z,72.92
2023-05-19T17:54:30.186Z,76.48
2023-05-19T17:56:59.395Z,80.75
2023-05-19T17:59:26.804Z,82.49
2023-05-19T18:01:54.232Z,83.34
2023-05-19T18:04:22.099Z,85.54
2023-05-19T18:06:52.100Z,91.23
2023-05-19T18:09:20.189Z,84.59
2023-05-19T18:11:47.737Z,83.72
2023-05-19T18:14:14.947Z,81.51
2023-05-19T18:16:42.165Z,80.79
2023-05-19T18:19:09.465Z,88.06
2023-05-19T18:21:36.579Z,86.75
2023-05-19T18:24:04.628Z,88.84
2023-05-19T18:26:33.101Z,89.48
2023-05-19T18:29:02.808Z,90.96
2023-05-19T18:31:30.092Z,91.15
2023-05-19T18:33:57.166Z,91.48
2023-05-19T18:36:24.469Z,92.63
2023-05-19T18:38:51.595Z,92.90
2023-05-19T18:41:18.653Z,94.02
2023-05-19T18:43:45.792Z,93.90
2023-05-19T18:46:13.475Z,94.54
2023-05-19T18:48:40.932Z,96.27
2023-05-19T18:51:08.943Z,98.49
2023-05-19T18:53:36.772Z,100.00
2023-05-19T18:56:04.563Z,100.00
2023-05-19T18:58:31.940Z,100.00
2023-05-19T19:00:59.203Z,100.00
2023-05-19T19:03:26.705Z,100.00
2023-05-19T19:05:58.009Z,100.00
2023-05-19T19:08:25.429Z,100.00
2023-05-19T19:10:53.536Z,100.00
2023-05-19T19:13:21.082Z,100.00
2023-05-19T19:15:48.209Z,100.00
2023-05-19T19:18:15.258Z,100.00
2023-05-19T19:20:42.696Z,100.00
2023-05-19T19:23:09.797Z,100.00
2023-05-19T19:25:36.969Z,100.00
2023-05-19T19:28:04.098Z,100.00
2023-05-19T19:30:31.311Z,100.00
2023-05-19T19:32:59.515Z,100.00
2023-05-19T19:35:26.832Z,100.00
2023-05-19T19:37:54.009Z,100.00
2023-05-19T19:40:21.087Z,100.00
2023-05-19T19:42:48.224Z,100.00
2023-05-19T19:45:15.865Z,100.00
2023-05-19T19:47:43.102Z,100.00
2023-05-19T19:50:11.546Z,100.00
2023-05-19T19:52:38.953Z,100.00
2023-05-19T19:55:06.775Z,100.00
2023-05-19T19:57:34.413Z,100.00
2023-05-19T20:00:07.934Z,100.00
2023-05-19T20:02:55.338Z,100.00
2023-05-19T20:05:27.189Z,100.00
2023-05-19T20:07:54.248Z,100.00
2023-05-19T20:10:21.452Z,100.00
2023-05-19T20:12:48.542Z,100.00
2023-05-19T20:15:16.083Z,100.00
2023-05-19T20:17:43.172Z,100.00
2023-05-19T20:20:12.311Z,100.00
2023-05-19T20:22:41.624Z,100.00
2023-05-19T20:25:09.202Z,100.00
2023-05-19T20:27:36.286Z,100.00
2023-05-19T20:30:03.800Z,100.00
2023-05-19T20:32:30.907Z,100.00
2023-05-19T20:34:58.296Z,100.00
2023-05-19T20:37:25.454Z,100.00
2023-05-19T20:39:52.503Z,100.00
2023-05-19T20:42:19.578Z,100.00
2023-05-19T20:44:46.618Z,100.00
2023-05-19T20:47:13.672Z,100.00
2023-05-19T20:49:40.828Z,100.00
2023-05-19T20:52:07.895Z,100.00
2023-05-19T20:54:34.984Z,100.00
2023-05-19T20:57:06.381Z,100.00
2023-05-19T20:59:33.719Z,100.00
2023-05-19T21:02:00.898Z,100.00
2023-05-19T21:04:28.117Z,100.00
2023-05-19T21:06:55.753Z,100.00
2023-05-19T21:09:22.901Z,100.00
2023-05-19T21:11:53.104Z,100.00
2023-05-19T21:14:21.250Z,100.00
2023-05-19T21:16:49.501Z,100.00
2023-05-19T21:19:16.886Z,100.00
2023-05-19T21:21:45.110Z,100.00
2023-05-19T21:24:13.259Z,100.00
2023-05-19T21:26:41.125Z,100.00
2023-05-19T21:29:10.379Z,100.00
2023-05-19T21:31:37.527Z,100.00
2023-05-19T21:34:07.733Z,100.00
2023-05-19T21:36:35.265Z,100.00
2023-05-19T21:39:02.638Z,100.00
2023-05-19T21:41:31.123Z,100.00
2023-05-19T21:43:58.192Z,100.00
2023-05-19T21:46:26.603Z,100.00
2023-05-19T21:48:53.706Z,100.00
2023-05-19T21:51:21.491Z,100.00
2023-05-19T21:53:48.703Z,100.00
2023-05-19T21:56:16.582Z,100.00
2023-05-19T21:58:43.681Z,100.00
2023-05-19T22:01:10.946Z,100.00
2023-05-19T22:03:38.000Z,100.00
2023-05-19T22:06:06.514Z,100.00
2023-05-19T22:08:33.608Z,100.00
2023-05-19T22:11:01.297Z,100.00
2023-05-19T22:13:28.544Z,100.00
2023-05-19T22:15:56.872Z,100.00
2023-05-19T22:18:24.095Z,100.00
2023-05-19T22:20:51.219Z,100.00
2023-05-19T22:23:18.252Z,100.00
2023-05-19T22:25:45.408Z,100.00
2023-05-19T22:28:12.684Z,100.00
2023-05-19T22:30:42.203Z,100.00
2023-05-19T22:33:09.961Z,100.00
2023-05-19T22:35:37.314Z,100.00
2023-05-19T22:38:04.391Z,100.00
2023-05-19T22:40:32.656Z,100.00
2023-05-19T22:42:59.958Z,100.00
2023-05-19T22:45:27.128Z,100.00
2023-05-19T22:47:55.316Z,100.00
2023-05-19T22:50:22.756Z,100.00
2023-05-19T22:52:49.842Z,100.00
2023-05-19T22:55:17.296Z,100.00
2023-05-19T22:57:44.451Z,100.00
2023-05-19T23:00:14.315Z,100.00
2023-05-19T23:02:44.840Z,100.00
2023-05-19T23:05:11.905Z,100.00
2023-05-19T23:07:39.161Z,100.00
2023-05-19T23:10:07.551Z,100.00
2023-05-19T23:12:34.920Z,100.00
2023-05-19T23:15:02.404Z,100.00
2023-05-19T23:17:29.635Z,100.00
2023-05-19T23:19:56.761Z,100.00
2023-05-19T23:22:23.858Z,100.00
2023-05-19T23:24:51.341Z,100.00
2023-05-19T23:27:18.375Z,100.00
2023-05-19T23:29:51.701Z,100.00
2023-05-19T23:32:18.724Z,100.00
2023-05-19T23:34:47.672Z,100.00
2023-05-19T23:37:14.760Z,100.00
2023-05-19T23:39:41.961Z,100.00
2023-05-19T23:42:09.061Z,100.00
2023-05-19T23:44:36.166Z,100.00
2023-05-19T23:47:03.314Z,100.00
2023-05-19T23:49:30.455Z,100.00
2023-05-19T23:51:57.546Z,100.00
2023-05-19T23:54:24.690Z,100.00
2023-05-19T23:56:51.735Z,100.00
2023-05-19T23:59:18.774Z,100.00
